createdAt,value
2022-09-03T00:00:09.261Z,14.3
2022-09-03T00:03:10.047Z,14.3
2022-09-03T00:06:09.217Z,14.1
2022-09-03T00:09:10.982Z,13.9
2022-09-03T00:12:09.215Z,13.7
2022-09-03T00:15:09.189Z,13.4
2022-09-03T00:18:09.240Z,13.1
2022-09-03T00:21:09.139Z,12.8
2022-09-03T00:24:16.265Z,12.7
2022-09-03T00:27:09.160Z,12.5
2022-09-03T00:30:12.817Z,12.3
2022-09-03T00:33:09.242Z,12.2
2022-09-03T00:36:09.226Z,12.2
2022-09-03T00:39:09.241Z,12.1
2022-09-03T00:42:09.186Z,12.2
2022-09-03T00:45:09.220Z,12.3
2022-09-03T00:48:09.588Z,12.2
2022-09-03T00:51:09.187Z,12.2
2022-09-03T00:54:09.214Z,12.1
2022-09-03T00:57:09.249Z,12.2
2022-09-03T01:00:09.259Z,12.2
2022-09-03T01:03:09.168Z,12.1
2022-09-03T01:06:10.705Z,12.1
2022-09-03T01:09:09.161Z,11.9
2022-09-03T01:12:09.205Z,11.9
2022-09-03T01:15:09.192Z,11.9
2022-09-03T01:18:09.175Z,11.9
2022-09-03T01:21:09.182Z,12
2022-09-03T01:24:09.233Z,12.2
2022-09-03T01:27:09.238Z,12.3
2022-09-03T01:30:09.269Z,12.4
2022-09-03T01:33:09.610Z,12.5
2022-09-03T01:36:09.244Z,12.5
2022-09-03T01:39:09.212Z,12.4
2022-09-03T01:42:09.217Z,12.2
2022-09-03T01:45:09.248Z,12
2022-09-03T01:48:09.251Z,11.8
2022-09-03T01:51:09.183Z,11.7
2022-09-03T01:54:17.590Z,11.5
2022-09-03T01:57:37.576Z,11.4
2022-09-03T02:00:09.221Z,11.4
2022-09-03T02:03:09.420Z,11.4
2022-09-03T02:06:09.270Z,11.3
2022-09-03T02:09:09.264Z,11.3
2022-09-03T02:12:09.262Z,11.2
2022-09-03T02:15:09.257Z,11.1
2022-09-03T02:18:09.369Z,11.1
2022-09-03T02:21:09.717Z,11.1
2022-09-03T02:24:09.241Z,10.9
2022-09-03T02:27:09.182Z,10.9
2022-09-03T02:30:09.190Z,11
2022-09-03T02:33:09.190Z,10.9
2022-09-03T02:36:09.185Z,10.6
2022-09-03T02:39:09.163Z,10.3
2022-09-03T02:42:12.285Z,10.2
2022-09-03T02:45:09.199Z,10.1
2022-09-03T02:48:09.167Z,10.1
2022-09-03T02:51:20.161Z,10
2022-09-03T02:54:09.220Z,10
2022-09-03T02:57:09.224Z,9.8
2022-09-03T03:00:09.231Z,9.7
2022-09-03T03:03:09.156Z,9.8
2022-09-03T03:06:09.209Z,9.7
2022-09-03T03:09:09.897Z,9.6
2022-09-03T03:12:09.233Z,9.6
2022-09-03T03:15:09.188Z,9.5
2022-09-03T03:18:09.204Z,9.5
2022-09-03T03:21:09.148Z,9.6
2022-09-03T03:24:09.258Z,9.6
2022-09-03T03:27:09.190Z,9.6
2022-09-03T03:30:09.246Z,9.5
2022-09-03T03:33:09.209Z,9.4
2022-09-03T03:36:09.143Z,9.3
2022-09-03T03:39:13.341Z,9.3
2022-09-03T03:42:09.197Z,9.2
2022-09-03T03:45:09.206Z,9.2
2022-09-03T03:48:09.606Z,9.3
2022-09-03T03:51:09.202Z,9.3
2022-09-03T03:54:19.837Z,9.3
2022-09-03T03:57:09.206Z,9.4
2022-09-03T04:00:09.226Z,9.5
2022-09-03T04:03:09.184Z,9.6
2022-09-03T04:06:09.163Z,9.6
2022-09-03T04:09:09.298Z,9.6
2022-09-03T04:12:09.118Z,9.7
2022-09-03T04:15:09.146Z,9.7
2022-09-03T04:18:09.143Z,9.8
2022-09-03T04:21:09.235Z,9.6
2022-09-03T04:24:09.233Z,9.6
2022-09-03T04:27:09.247Z,9.8
2022-09-03T04:30:11.431Z,9.8
2022-09-03T04:33:18.154Z,9.9
2022-09-03T04:36:09.200Z,9.9
2022-09-03T04:39:09.175Z,9.9
2022-09-03T04:42:09.211Z,9.9
2022-09-03T04:45:09.226Z,9.9
2022-09-03T04:48:09.202Z,9.8
2022-09-03T04:51:09.273Z,9.8
2022-09-03T04:54:09.243Z,9.7
2022-09-03T04:57:09.221Z,9.6
2022-09-03T05:00:09.239Z,9.6
2022-09-03T05:03:09.237Z,9.6
2022-09-03T05:06:11.675Z,9.6
2022-09-03T05:09:09.211Z,9.7
2022-09-03T05:12:09.832Z,9.8
2022-09-03T05:15:09.198Z,9.9
2022-09-03T05:18:09.289Z,10.1
2022-09-03T05:21:09.257Z,10.3
2022-09-03T05:24:09.230Z,10.4
2022-09-03T05:27:09.245Z,10.6
2022-09-03T05:30:09.544Z,10.7
2022-09-03T05:33:10.019Z,10.9
2022-09-03T05:36:09.207Z,11.1
2022-09-03T05:39:09.420Z,11.5
2022-09-03T05:42:10.380Z,12.4
2022-09-03T05:45:09.280Z,13.8
2022-09-03T05:48:09.232Z,15.3
2022-09-03T05:51:09.298Z,16.6
2022-09-03T05:54:09.513Z,17.4
2022-09-03T05:57:09.522Z,17.8
2022-09-03T06:00:09.341Z,18.1
2022-09-03T06:03:10.565Z,17.8
2022-09-03T06:06:09.295Z,18.3
2022-09-03T06:09:09.279Z,18.6
2022-09-03T06:12:12.546Z,18.9
2022-09-03T06:15:09.276Z,19.5
2022-09-03T06:18:09.282Z,19.8
2022-09-03T06:21:09.279Z,20.1
2022-09-03T06:24:09.465Z,20.4
2022-09-03T06:27:10.246Z,20.3
2022-09-03T06:30:09.405Z,19.9
2022-09-03T06:33:09.531Z,20.1
2022-09-03T06:36:15.220Z,20.7
2022-09-03T06:39:09.330Z,20.6
2022-09-03T06:42:10.098Z,20.5
2022-09-03T06:45:15.054Z,20.7
2022-09-03T06:48:09.260Z,20.7
2022-09-03T06:51:09.525Z,20.2
2022-09-03T06:54:09.269Z,20.3
2022-09-03T06:57:09.286Z,20.1
2022-09-03T07:00:09.467Z,20.3
2022-09-03T07:03:09.278Z,20.6
2022-09-03T07:06:09.253Z,20.9
2022-09-03T07:09:09.276Z,20.9
2022-09-03T07:12:09.342Z,21
2022-09-03T07:15:09.535Z,21.2
2022-09-03T07:18:09.252Z,21.4
2022-09-03T07:21:09.270Z,21.2
2022-09-03T07:24:09.298Z,20.8
2022-09-03T07:27:15.011Z,20.4
2022-09-03T07:30:09.348Z,20.7
2022-09-03T07:33:09.289Z,20.5
2022-09-03T07:36:09.233Z,20.6
2022-09-03T07:39:09.222Z,20.4
2022-09-03T07:42:09.299Z,20.5
2022-09-03T07:45:09.235Z,21.2
2022-09-03T07:48:09.275Z,21.6
2022-09-03T07:51:09.244Z,21.2
2022-09-03T07:54:09.426Z,20.9
2022-09-03T07:57:09.301Z,20.9
2022-09-03T08:00:09.530Z,21.2
2022-09-03T08:03:09.219Z,21.1
2022-09-03T08:06:09.266Z,20.8
2022-09-03T08:09:15.039Z,21
2022-09-03T08:12:09.272Z,21.4
2022-09-03T08:15:09.241Z,21.8
2022-09-03T08:18:15.964Z,21.6
2022-09-03T08:21:09.432Z,22.1
2022-09-03T08:24:09.538Z,22.2
2022-09-03T08:27:09.328Z,22.2
2022-09-03T08:30:09.258Z,22
2022-09-03T08:33:09.306Z,22.2
2022-09-03T08:36:09.246Z,22.8
2022-09-03T08:39:09.282Z,23.3
2022-09-03T08:42:09.229Z,22.9
2022-09-03T08:45:09.293Z,22.4
2022-09-03T08:48:09.285Z,22.9
2022-09-03T08:51:12.383Z,22.9
2022-09-03T08:54:09.320Z,23
2022-09-03T08:57:09.544Z,23.4
2022-09-03T09:00:09.348Z,23.1
2022-09-03T09:03:09.535Z,23.6
2022-09-03T09:06:09.291Z,23.6
2022-09-03T09:09:09.276Z,23.6
2022-09-03T09:12:09.364Z,23.1
2022-09-03T09:15:09.278Z,23
2022-09-03T09:18:09.311Z,23.3
2022-09-03T09:21:09.243Z,23.6
2022-09-03T09:24:11.115Z,22.8
2022-09-03T09:27:11.812Z,23
2022-09-03T09:30:10.570Z,23
2022-09-03T09:33:09.399Z,23.2
2022-09-03T09:36:09.294Z,23.7
2022-09-03T09:39:09.250Z,24.3
2022-09-03T09:42:09.310Z,24.2
2022-09-03T09:45:09.246Z,23.6
2022-09-03T09:48:09.213Z,23.2
2022-09-03T09:51:09.302Z,23.6
2022-09-03T09:54:09.339Z,23.7
2022-09-03T09:57:09.290Z,24.1
2022-09-03T10:00:09.334Z,23.8
2022-09-03T10:03:09.677Z,24.2
2022-09-03T10:06:09.219Z,24
2022-09-03T10:09:09.300Z,24.4
2022-09-03T10:12:09.325Z,24.2
2022-09-03T10:15:09.241Z,24.1
2022-09-03T10:18:09.250Z,23.7
2022-09-03T10:21:09.223Z,24
2022-09-03T10:24:16.117Z,24.3
2022-09-03T10:27:09.279Z,24.1
2022-09-03T10:30:11.277Z,24.2
2022-09-03T10:33:09.258Z,24.1
2022-09-03T10:36:10.061Z,23.7
2022-09-03T10:39:09.272Z,23.3
2022-09-03T10:42:09.219Z,23.5
2022-09-03T10:45:09.309Z,23.9
2022-09-03T10:48:09.214Z,23.7
2022-09-03T10:51:09.234Z,24.2
2022-09-03T10:54:09.280Z,24.4
2022-09-03T10:57:09.220Z,24
2022-09-03T11:00:09.322Z,23.6
2022-09-03T11:03:09.800Z,23.7
2022-09-03T11:06:09.244Z,23.8
2022-09-03T11:09:15.522Z,23.8
2022-09-03T11:12:09.267Z,24
2022-09-03T11:15:09.191Z,24.3
2022-09-03T11:18:09.217Z,24.5
2022-09-03T11:21:14.596Z,24.7
2022-09-03T11:24:09.301Z,24.5
2022-09-03T11:27:09.228Z,24.8
2022-09-03T11:30:09.318Z,25.3
2022-09-03T11:33:09.198Z,25.2
2022-09-03T11:36:09.269Z,24.9
2022-09-03T11:39:09.256Z,24.8
2022-09-03T11:42:09.318Z,25.1
2022-09-03T11:45:09.239Z,25.1
2022-09-03T11:48:09.253Z,25
2022-09-03T11:51:09.228Z,24.7
2022-09-03T11:54:11.746Z,24.7
2022-09-03T11:57:09.259Z,25.3
2022-09-03T12:00:09.443Z,25.6
2022-09-03T12:03:09.375Z,25.4
2022-09-03T12:06:09.248Z,25.3
2022-09-03T12:09:09.227Z,25.2
2022-09-03T12:12:12.052Z,25.2
2022-09-03T12:15:09.322Z,25.3
2022-09-03T12:18:09.305Z,25.4
2022-09-03T12:21:09.242Z,25.3
2022-09-03T12:24:09.279Z,25.1
2022-09-03T12:27:09.217Z,24.8
2022-09-03T12:30:09.437Z,25
2022-09-03T12:33:09.318Z,24.9
2022-09-03T12:36:09.811Z,24.6
2022-09-03T12:42:09.254Z,25.3
2022-09-03T12:45:09.295Z,25.1
2022-09-03T12:48:09.810Z,25.3
2022-09-03T12:54:09.665Z,25.4
2022-09-03T12:57:09.232Z,24.9
2022-09-03T13:00:09.353Z,25.3
2022-09-03T13:03:09.253Z,25.1
2022-09-03T13:06:09.214Z,24.9
2022-09-03T13:09:09.238Z,24.8
2022-09-03T13:12:09.275Z,24.9
2022-09-03T13:15:09.320Z,24.9
2022-09-03T13:18:09.244Z,24.4
2022-09-03T13:21:09.256Z,24.3
2022-09-03T13:24:09.238Z,24.5
2022-09-03T13:27:09.265Z,24.3
2022-09-03T13:30:09.258Z,24.5
2022-09-03T13:33:10.450Z,24.5
2022-09-03T13:36:09.241Z,24.4
2022-09-03T13:39:09.280Z,24.5
2022-09-03T13:42:09.219Z,24.1
2022-09-03T13:45:09.372Z,24.1
2022-09-03T13:48:09.299Z,24.1
2022-09-03T13:51:09.704Z,24.1
2022-09-03T13:54:09.291Z,24.3
2022-09-03T13:57:09.357Z,24.3
2022-09-03T14:00:10.862Z,24.1
2022-09-03T14:03:09.242Z,24.1
2022-09-03T14:06:09.240Z,23.9
2022-09-03T14:09:09.261Z,23.9
2022-09-03T14:12:12.972Z,23.8
2022-09-03T14:15:09.252Z,23.8
2022-09-03T14:18:09.279Z,23.9
2022-09-03T14:21:09.246Z,23.9
2022-09-03T14:24:09.263Z,23.7
2022-09-03T14:27:09.242Z,23.6
2022-09-03T14:30:09.398Z,23.6
2022-09-03T14:33:09.335Z,23.6
2022-09-03T14:36:09.281Z,23.5
2022-09-03T14:39:09.267Z,23.5
2022-09-03T14:42:09.276Z,23.6
2022-09-03T14:45:09.211Z,23.4
2022-09-03T14:48:09.246Z,23.7
2022-09-03T14:51:15.384Z,23.6
2022-09-03T14:54:09.320Z,23.3
2022-09-03T14:57:15.262Z,23.4
2022-09-03T15:00:18.053Z,23.3
2022-09-03T15:03:09.303Z,23.3
2022-09-03T15:06:09.269Z,23.1
2022-09-03T15:09:09.257Z,23.2
2022-09-03T15:12:10.640Z,23.1
2022-09-03T15:15:09.708Z,23
2022-09-03T15:18:09.220Z,23
2022-09-03T15:21:09.243Z,23.1
2022-09-03T15:24:09.288Z,23.3
2022-09-03T15:27:09.236Z,23.2
2022-09-03T15:30:09.526Z,23.1
2022-09-03T15:33:09.451Z,23
2022-09-03T15:36:09.322Z,22.8
2022-09-03T15:39:09.285Z,22.7
2022-09-03T15:42:09.263Z,22.6
2022-09-03T15:45:09.242Z,22.7
2022-09-03T15:48:09.270Z,22.8
2022-09-03T15:51:09.618Z,22.8
2022-09-03T15:54:09.217Z,22.8
2022-09-03T15:57:09.264Z,22.8
2022-09-03T16:00:09.323Z,22.8
2022-09-03T16:03:09.576Z,22.9
2022-09-03T16:06:14.027Z,22.8
2022-09-03T16:09:09.250Z,22.6
2022-09-03T16:12:09.513Z,22.6
2022-09-03T16:15:09.297Z,22.6
2022-09-03T16:18:09.403Z,22.5
2022-09-03T16:21:09.273Z,22.5
2022-09-03T16:24:09.272Z,22.4
2022-09-03T16:27:09.165Z,22.4
2022-09-03T16:30:09.355Z,22.4
2022-09-03T16:33:09.257Z,22.4
2022-09-03T16:36:09.304Z,22.2
2022-09-03T16:39:09.255Z,22.2
2022-09-03T16:42:09.235Z,22.1
2022-09-03T16:45:09.611Z,22.1
2022-09-03T16:48:09.306Z,22
2022-09-03T16:51:09.268Z,22
2022-09-03T16:54:09.279Z,21.9
2022-09-03T16:57:09.555Z,21.9
2022-09-03T17:00:09.290Z,21.8
2022-09-03T17:03:09.255Z,21.7
2022-09-03T17:06:09.929Z,21.6
2022-09-03T17:09:09.223Z,21.6
2022-09-03T17:12:09.251Z,21.4
2022-09-03T17:15:09.265Z,21.4
2022-09-03T17:18:09.253Z,21.3
2022-09-03T17:21:09.247Z,21.2
2022-09-03T17:24:09.212Z,21.1
2022-09-03T17:27:13.085Z,21
2022-09-03T17:30:09.384Z,20.9
2022-09-03T17:33:09.276Z,20.8
2022-09-03T17:36:09.274Z,20.7
2022-09-03T17:39:09.255Z,20.5
2022-09-03T17:42:09.206Z,20.4
2022-09-03T17:45:09.249Z,20.3
2022-09-03T17:48:09.239Z,20.2
2022-09-03T17:51:09.285Z,20.1
2022-09-03T17:54:09.214Z,20
2022-09-03T17:57:09.227Z,19.9
2022-09-03T18:00:09.241Z,19.8
2022-09-03T18:03:09.263Z,19.8
2022-09-03T18:06:09.235Z,19.6
2022-09-03T18:09:09.166Z,19.5
2022-09-03T18:12:09.207Z,19.4
2022-09-03T18:15:09.133Z,19.3
2022-09-03T18:18:09.210Z,19.3
2022-09-03T18:21:38.404Z,19.2
2022-09-03T18:24:09.234Z,19.1
2022-09-03T18:27:11.782Z,19.1
2022-09-03T18:30:09.280Z,18.9
2022-09-03T18:33:11.514Z,18.9
2022-09-03T18:36:09.193Z,18.8
2022-09-03T18:39:09.151Z,18.7
2022-09-03T18:42:09.153Z,18.5
2022-09-03T18:48:26.973Z,18.5
2022-09-03T18:51:09.214Z,18.5
2022-09-03T18:54:09.234Z,18.4
2022-09-03T18:57:09.196Z,18.5
2022-09-03T19:00:09.235Z,18.5
2022-09-03T19:03:09.637Z,18.6
2022-09-03T19:06:09.246Z,18.5
2022-09-03T19:09:09.150Z,18.4
2022-09-03T19:12:09.211Z,18.4
2022-09-03T19:15:09.138Z,18.4
2022-09-03T19:18:09.550Z,18.4
2022-09-03T19:21:12.236Z,18.3
2022-09-03T19:24:10.242Z,18.4
2022-09-03T19:27:58.823Z,18.3
2022-09-03T19:30:09.206Z,18.2
2022-09-03T19:33:13.977Z,18.1
2022-09-03T19:36:09.222Z,18
2022-09-03T19:39:11.003Z,17.9
2022-09-03T19:42:09.203Z,18
2022-09-03T19:45:09.187Z,17.9
2022-09-03T19:48:09.388Z,17.9
2022-09-03T19:51:09.198Z,17.9
2022-09-03T19:54:09.183Z,18
2022-09-03T19:57:09.188Z,17.9
2022-09-03T20:00:09.290Z,17.8
2022-09-03T20:03:09.695Z,17.7
2022-09-03T20:06:15.531Z,17.6
2022-09-03T20:09:09.175Z,17.6
2022-09-03T20:12:18.735Z,17.5
2022-09-03T20:15:09.928Z,17.5
2022-09-03T20:18:11.336Z,17.4
2022-09-03T20:21:09.186Z,17.3
2022-09-03T20:24:09.161Z,17.4
2022-09-03T20:27:09.156Z,17.4
2022-09-03T20:30:09.288Z,17.4
2022-09-03T20:33:13.192Z,17.4
2022-09-03T20:36:09.171Z,17.4
2022-09-03T20:39:09.186Z,17.2
2022-09-03T20:42:09.543Z,17.2
2022-09-03T20:45:10.022Z,17.1
2022-09-03T20:48:09.236Z,16.9
2022-09-03T20:51:14.649Z,16.8
2022-09-03T20:54:09.180Z,16.4
2022-09-03T20:57:09.194Z,16.2
2022-09-03T21:00:09.188Z,15.9
2022-09-03T21:03:09.425Z,15.6
2022-09-03T21:06:09.209Z,15.3
2022-09-03T21:09:09.212Z,15.1
2022-09-03T21:12:09.202Z,14.7
2022-09-03T21:15:09.230Z,14.4
2022-09-03T21:18:09.372Z,14.2
2022-09-03T21:21:09.167Z,14
2022-09-03T21:24:09.195Z,13.9
2022-09-03T21:27:09.196Z,13.9
2022-09-03T21:30:10.773Z,13.9
2022-09-03T21:33:09.145Z,13.9
2022-09-03T21:36:09.166Z,13.8
2022-09-03T21:39:09.192Z,13.7
2022-09-03T21:42:09.171Z,13.5
2022-09-03T21:45:09.167Z,13.5
2022-09-03T21:48:11.024Z,13.4
2022-09-03T21:51:09.569Z,13.3
2022-09-03T21:54:09.271Z,13.1
2022-09-03T21:57:09.237Z,13
2022-09-03T22:00:09.526Z,13
2022-09-03T22:03:11.742Z,12.9
2022-09-03T22:06:09.122Z,12.9
2022-09-03T22:09:09.530Z,12.9
2022-09-03T22:12:09.145Z,12.7
2022-09-03T22:15:09.217Z,12.6
2022-09-03T22:18:09.201Z,12.5
2022-09-03T22:21:09.172Z,12.4
2022-09-03T22:24:09.197Z,12.3
2022-09-03T22:27:09.160Z,12.2
2022-09-03T22:30:09.171Z,12.1
2022-09-03T22:33:09.161Z,12.2
2022-09-03T22:36:09.257Z,12.1
2022-09-03T22:39:09.143Z,12.1
2022-09-03T22:42:14.777Z,12.1
2022-09-03T22:45:09.215Z,12.1
2022-09-03T22:48:09.871Z,12.1
2022-09-03T22:51:09.181Z,12.1
2022-09-03T22:54:09.201Z,12
2022-09-03T22:57:09.189Z,11.9
2022-09-03T23:00:09.341Z,11.9
2022-09-03T23:03:10.430Z,11.9
2022-09-03T23:06:11.548Z,11.9
2022-09-03T23:09:10.233Z,12
2022-09-03T23:12:09.163Z,11.9
2022-09-03T23:15:09.932Z,11.9
2022-09-03T23:18:09.170Z,11.8
2022-09-03T23:21:09.176Z,11.8
2022-09-03T23:24:09.159Z,11.8
2022-09-03T23:27:09.188Z,11.6
2022-09-03T23:30:09.205Z,11.4
2022-09-03T23:33:09.200Z,11.3
2022-09-03T23:36:09.206Z,11.3
2022-09-03T23:39:09.188Z,11.4
2022-09-03T23:42:09.108Z,11.3
2022-09-03T23:45:18.068Z,11.4
2022-09-03T23:48:09.235Z,11.4
2022-09-03T23:51:09.238Z,11.4
2022-09-03T23:54:09.230Z,11.3
2022-09-03T23:57:09.141Z,11.2
